Time;durP1;ratioP1;P1;durP2;ratioP2;P2;SDS_P1;SDS_P2;PMS_P1;PMS_P2;Temp;Humidity;BMP_temperature;BMP_pressure;BME280_temperature;BME280_humidity;BME280_pressure;Samples;Min_cycle;Max_cycle;Signal;HPM_P1;HPM_P2
2023/06/14 00:01:45;;;;;;;2.70;0.70;;;;;;;20.16;29.70;101166.00;7363155;19;20202;-62
2023/06/14 00:04:13;;;;;;;3.38;0.63;;;;;;;20.10;30.25;101174.00;7362506;19;20054;-61
2023/06/14 00:06:41;;;;;;;4.50;0.80;;;;;;;20.08;30.62;101172.34;7368209;19;20014;-62
2023/06/14 00:09:08;;;;;;;3.70;0.80;;;;;;;20.07;31.04;101172.53;7363596;19;20384;-62
2023/06/14 00:11:39;;;;;;;3.38;0.70;;;;;;;20.06;31.42;101178.94;7362159;19;20110;-64
2023/06/14 00:14:07;;;;;;;2.28;0.80;;;;;;;19.96;31.69;101163.31;7365000;19;20014;-61
2023/06/14 00:16:35;;;;;;;2.78;0.80;;;;;;;19.87;32.03;101164.53;7364058;19;20097;-61
2023/06/14 00:19:05;;;;;;;3.88;0.80;;;;;;;19.84;32.63;101164.13;7361557;19;20954;-62
2023/06/14 00:21:32;;;;;;;4.07;1.00;;;;;;;19.81;32.59;101167.22;7367130;19;20101;-62
2023/06/14 00:23:59;;;;;;;4.75;1.00;;;;;;;19.70;34.34;101163.31;7363155;19;20047;-62
2023/06/14 00:26:26;;;;;;;2.88;1.02;;;;;;;19.66;34.30;101174.63;7361300;19;20038;-62
2023/06/14 00:28:54;;;;;;;10.32;1.05;;;;;;;19.61;34.71;101168.00;7363567;19;20022;-63
2023/06/14 00:31:21;;;;;;;2.50;0.80;;;;;;;19.61;34.98;101185.88;7360800;19;20022;-61
2023/06/14 00:33:48;;;;;;;4.07;0.93;;;;;;;19.56;35.17;101181.16;7359477;19;20090;-62
2023/06/14 00:36:15;;;;;;;5.45;0.98;;;;;;;19.50;35.85;101189.16;7366457;19;20049;-61
2023/06/14 00:38:42;;;;;;;4.05;0.60;;;;;;;19.44;36.42;101184.59;7361823;19;20022;-63
2023/06/14 00:41:10;;;;;;;2.13;0.70;;;;;;;19.42;37.18;101192.78;7364014;19;20138;-63
2023/06/14 00:43:37;;;;;;;2.95;0.70;;;;;;;19.05;39.20;101186.09;7362570;19;20022;-62
2023/06/14 00:46:04;;;;;;;2.40;0.80;;;;;;;19.04;39.37;101189.00;7364302;19;20089;-62
2023/06/14 00:48:31;;;;;;;5.15;0.70;;;;;;;18.85;40.18;101187.84;7361719;19;20076;-62
2023/06/14 00:51:03;;;;;;;6.13;1.05;;;;;;;18.57;40.98;101187.09;7360579;19;20037;-63
2023/06/14 00:53:34;;;;;;;5.28;1.02;;;;;;;18.50;41.58;101179.03;7360062;19;20445;-62
2023/06/14 00:56:01;;;;;;;4.13;0.70;;;;;;;18.48;42.30;101185.59;7363722;19;20451;-61
2023/06/14 00:58:28;;;;;;;3.33;0.93;;;;;;;18.42;43.25;101178.38;7365864;19;20114;-61
2023/06/14 01:00:56;;;;;;;3.60;0.70;;;;;;;18.44;43.26;101184.34;7364598;19;20832;-62
2023/06/14 01:03:23;;;;;;;2.85;0.60;;;;;;;18.42;43.67;101189.84;7362930;19;20440;-61
2023/06/14 01:06:04;;;;;;;3.92;0.80;;;;;;;18.43;44.96;101199.50;7359692;19;20499;-61
2023/06/14 01:08:37;;;;;;;4.53;0.80;;;;;;;18.44;44.94;101189.66;7362831;19;20022;-62
2023/06/14 01:11:22;;;;;;;4.32;0.80;;;;;;;18.43;46.32;101188.84;7363074;19;20097;-61
2023/06/14 01:13:51;;;;;;;2.25;0.60;;;;;;;18.37;47.04;101189.63;7363291;19;20026;-61
2023/06/14 01:16:20;;;;;;;3.08;0.60;;;;;;;18.35;46.96;101199.63;7361823;19;20109;-61
2023/06/14 01:18:49;;;;;;;4.47;0.70;;;;;;;18.11;47.34;101203.56;7358465;19;20006;-61
2023/06/14 01:21:25;;;;;;;6.15;0.85;;;;;;;18.00;48.42;101198.75;7363446;19;20018;-61
2023/06/14 01:23:53;;;;;;;6.15;0.93;;;;;;;17.89;48.56;101197.44;7366097;19;20035;-61
2023/06/14 01:26:23;;;;;;;4.10;0.80;;;;;;;17.85;49.17;101203.31;7367763;19;20376;-62
2023/06/14 01:28:52;;;;;;;4.38;0.60;;;;;;;17.84;49.96;101193.69;7364324;19;20389;-62
2023/06/14 01:31:21;;;;;;;5.80;0.70;;;;;;;17.86;50.28;101197.81;7366020;19;20006;-61
2023/06/14 01:33:52;;;;;;;4.00;1.10;;;;;;;17.81;51.52;101199.41;7363278;19;20082;-61
2023/06/14 01:36:20;;;;;;;4.68;0.77;;;;;;;17.67;52.29;101190.47;7366217;19;20036;-62
2023/06/14 01:38:50;;;;;;;4.97;1.17;;;;;;;17.61;53.09;101185.09;7364483;19;20019;-61
2023/06/14 01:41:20;;;;;;;4.95;1.00;;;;;;;17.61;54.01;101183.25;7364128;19;20494;-62
2023/06/14 01:43:48;;;;;;;4.53;0.80;;;;;;;17.61;54.82;101190.41;7366207;19;20014;-63
2023/06/14 01:46:16;;;;;;;2.90;0.95;;;;;;;17.60;55.48;101176.28;7361067;19;20096;-62
2023/06/14 01:48:43;;;;;;;3.55;0.93;;;;;;;17.57;56.46;101179.28;7361285;19;20018;-62
2023/06/14 01:51:10;;;;;;;6.80;1.10;;;;;;;17.48;57.59;101183.88;7362584;19;20023;-61
2023/06/14 01:53:37;;;;;;;5.15;1.40;;;;;;;17.42;58.23;101178.53;7362593;19;20101;-61
2023/06/14 01:56:05;;;;;;;8.77;1.90;;;;;;;17.17;59.88;101182.53;7360279;19;20560;-61
2023/06/14 01:58:32;;;;;;;6.03;1.17;;;;;;;17.12;60.46;101168.97;7364272;19;20014;-62
2023/06/14 02:01:00;;;;;;;6.28;1.85;;;;;;;16.94;61.52;101170.19;7362762;19;21278;-62
2023/06/14 02:03:27;;;;;;;5.32;1.30;;;;;;;16.88;62.02;101168.28;7370474;19;20014;-62
2023/06/14 02:05:55;;;;;;;7.43;1.20;;;;;;;16.91;62.15;101165.25;7376237;19;20040;-63
2023/06/14 02:08:23;;;;;;;5.38;1.20;;;;;;;16.91;62.29;101167.09;7376850;19;20022;-63
2023/06/14 02:10:51;;;;;;;5.22;0.90;;;;;;;16.92;62.81;101171.38;7376813;19;20022;-62
2023/06/14 02:13:18;;;;;;;5.15;0.80;;;;;;;16.99;62.24;101166.97;7378688;19;20137;-62
2023/06/14 02:15:45;;;;;;;5.13;1.15;;;;;;;16.98;62.20;101163.50;7377929;19;20025;-62
2023/06/14 02:18:12;;;;;;;7.50;1.10;;;;;;;16.96;62.10;101162.88;7375258;19;21213;-62
2023/06/14 02:20:39;;;;;;;6.18;0.82;;;;;;;16.88;62.38;101162.13;7373543;19;20022;-63
2023/06/14 02:23:07;;;;;;;4.72;1.02;;;;;;;16.82;62.54;101157.53;7377617;19;20037;-62
2023/06/14 02:25:35;;;;;;;6.03;1.05;;;;;;;16.83;63.00;101153.88;7375414;19;20127;-62
2023/06/14 02:28:03;;;;;;;3.83;0.90;;;;;;;16.84;62.51;101153.72;7375101;19;20113;-63
2023/06/14 02:30:30;;;;;;;4.78;1.13;;;;;;;16.87;62.47;101157.81;7374903;19;20055;-62
2023/06/14 02:32:58;;;;;;;5.65;1.02;;;;;;;16.88;62.40;101159.47;7373046;19;20022;-62
2023/06/14 02:35:26;;;;;;;4.15;0.95;;;;;;;16.87;62.82;101169.28;7374975;19;20826;-62
2023/06/14 02:37:53;;;;;;;4.15;1.10;;;;;;;16.89;63.00;101166.44;7375600;19;20014;-61
2023/06/14 02:40:21;;;;;;;5.15;1.00;;;;;;;16.84;63.12;101166.16;7371523;19;20098;-61
2023/06/14 02:42:48;;;;;;;6.95;1.23;;;;;;;16.79;63.51;101156.09;7374227;19;20360;-61
2023/06/14 02:45:15;;;;;;;5.28;1.50;;;;;;;16.75;63.61;101154.81;7371822;19;20047;-61
2023/06/14 02:47:42;;;;;;;4.28;1.00;;;;;;;16.75;63.62;101151.34;7374449;19;20090;-64
2023/06/14 02:50:09;;;;;;;4.70;1.20;;;;;;;16.73;64.24;101156.00;7374996;19;20014;-62
2023/06/14 02:52:36;;;;;;;7.55;1.30;;;;;;;16.73;64.33;101150.69;7373970;19;20014;-62
2023/06/14 02:55:04;;;;;;;12.82;1.88;;;;;;;16.64;64.68;101150.78;7372847;19;20007;-62
2023/06/14 02:57:31;;;;;;;8.02;1.00;;;;;;;16.59;65.08;101155.84;7374516;19;20363;-66
2023/06/14 02:59:58;;;;;;;6.45;1.10;;;;;;;16.55;65.20;101159.84;7373644;19;20021;-61
2023/06/14 03:02:25;;;;;;;10.13;1.67;;;;;;;16.59;65.25;101162.97;7375054;19;21859;-62
2023/06/14 03:04:52;;;;;;;4.15;1.77;;;;;;;16.63;65.64;101164.25;7376726;19;20041;-62
2023/06/14 03:07:19;;;;;;;9.35;1.50;;;;;;;16.66;65.00;101162.06;7377793;19;20025;-62
2023/06/14 03:09:49;;;;;;;4.95;1.40;;;;;;;16.67;65.29;101161.03;7369787;19;20015;-63
2023/06/14 03:12:16;;;;;;;8.70;1.63;;;;;;;16.70;65.43;101161.69;7375953;19;20040;-61
2023/06/14 03:14:46;;;;;;;5.07;1.13;;;;;;;16.72;65.16;101149.03;7366580;19;20011;-62
2023/06/14 03:17:13;;;;;;;11.13;1.98;;;;;;;16.68;65.37;101165.34;7367804;19;20513;-61
2023/06/14 03:19:41;;;;;;;4.60;1.27;;;;;;;16.64;65.83;101155.28;7364160;19;20028;-60
2023/06/14 03:22:08;;;;;;;5.68;1.70;;;;;;;16.62;65.88;101168.75;7367905;19;20025;-61
2023/06/14 03:24:36;;;;;;;6.10;1.52;;;;;;;16.55;66.31;101145.72;7368243;19;20098;-61
2023/06/14 03:27:04;;;;;;;6.95;1.65;;;;;;;16.49;66.47;101159.75;7368354;19;20521;-62
2023/06/14 03:29:31;;;;;;;7.20;1.75;;;;;;;16.44;67.01;101165.59;7369526;19;20011;-62
2023/06/14 03:32:02;;;;;;;10.50;1.92;;;;;;;16.29;67.65;101154.16;7365141;19;20010;-63
2023/06/14 03:34:30;;;;;;;8.80;1.98;;;;;;;16.25;67.89;101158.19;7365275;19;21533;-63
2023/06/14 03:36:57;;;;;;;7.72;2.00;;;;;;;16.13;68.45;101159.63;7363954;19;20015;-61
2023/06/14 03:39:24;;;;;;;8.02;1.42;;;;;;;16.12;69.31;101163.28;7366783;19;20018;-62
2023/06/14 03:41:51;;;;;;;10.88;2.00;;;;;;;16.13;68.70;101160.44;7365074;19;20014;-62
2023/06/14 03:44:18;;;;;;;7.80;1.38;;;;;;;16.06;69.49;101164.00;7365725;19;20011;-62
2023/06/14 03:46:49;;;;;;;11.52;1.98;;;;;;;15.91;70.32;101166.63;7362329;19;20014;-61
2023/06/14 03:49:16;;;;;;;7.72;1.85;;;;;;;15.92;70.22;101164.78;7361094;19;20010;-61
2023/06/14 03:51:44;;;;;;;9.93;1.80;;;;;;;15.91;70.34;101161.31;7366299;19;20038;-61
2023/06/14 03:54:11;;;;;;;7.18;1.50;;;;;;;15.96;70.55;101174.03;7365812;19;20017;-61
2023/06/14 03:56:59;;;;;;;7.85;1.92;;;;;;;15.93;70.93;101169.91;7365835;19;20026;-62
2023/06/14 03:59:26;;;;;;;5.03;1.50;;;;;;;15.94;71.63;101168.09;7365986;19;20577;-62
2023/06/14 04:01:55;;;;;;;8.77;1.77;;;;;;;15.99;71.36;101166.56;7367031;19;20341;-61
2023/06/14 04:04:29;;;;;;;8.38;1.67;;;;;;;16.02;71.26;101173.31;7366023;19;20036;-63
2023/06/14 04:06:58;;;;;;;8.38;1.48;;;;;;;15.99;71.65;101168.38;7367225;19;20085;-62
2023/06/14 04:09:25;;;;;;;8.85;1.80;;;;;;;15.93;71.81;101172.56;7365755;19;20035;-62
2023/06/14 04:11:53;;;;;;;8.90;1.60;;;;;;;15.90;72.26;101169.47;7365947;19;20467;-61
2023/06/14 04:14:20;;;;;;;7.45;1.63;;;;;;;15.94;72.62;101165.44;7365642;19;20582;-62
2023/06/14 04:16:48;;;;;;;8.30;1.60;;;;;;;15.95;72.63;101175.06;7366728;19;20030;-61
2023/06/14 04:19:16;;;;;;;4.93;1.42;;;;;;;15.95;72.47;101173.19;7362682;19;20065;-62
2023/06/14 04:21:43;;;;;;;8.00;1.67;;;;;;;15.95;72.77;101167.09;7367750;19;21917;-62
2023/06/14 04:24:13;;;;;;;5.95;1.88;;;;;;;15.99;72.61;101171.88;7362399;19;20014;-62
2023/06/14 04:26:44;;;;;;;6.88;1.70;;;;;;;16.05;73.31;101167.66;7366427;19;20094;-62
2023/06/14 04:29:16;;;;;;;4.80;1.20;;;;;;;16.05;72.94;101170.31;7364626;19;20487;-61
2023/06/14 04:31:44;;;;;;;6.75;2.00;;;;;;;16.07;72.78;101174.44;7362030;19;20026;-61
2023/06/14 04:34:15;;;;;;;6.72;1.88;;;;;;;16.12;72.86;101171.25;7361017;19;20600;-63
2023/06/14 04:36:49;;;;;;;6.65;1.60;;;;;;;16.07;73.06;101158.50;7367094;19;20014;-62
2023/06/14 04:39:19;;;;;;;4.32;1.67;;;;;;;16.05;73.82;101168.47;7363693;19;20751;-62
2023/06/14 04:41:46;;;;;;;7.53;1.75;;;;;;;15.99;73.84;101174.53;7366164;19;20020;-62
2023/06/14 04:44:16;;;;;;;5.80;1.67;;;;;;;15.97;74.03;101178.34;7363094;19;20097;-63
2023/06/14 04:46:47;;;;;;;8.80;1.88;;;;;;;16.00;74.50;101180.66;7366370;19;20136;-61
2023/06/14 04:49:17;;;;;;;10.35;2.05;;;;;;;15.96;74.52;101179.34;7358725;19;20018;-61
2023/06/14 04:51:46;;;;;;;5.35;2.40;;;;;;;15.97;74.81;101183.66;7362812;19;20018;-62
2023/06/14 04:54:16;;;;;;;7.55;1.75;;;;;;;16.01;74.98;101190.25;7361623;19;21452;-62
2023/06/14 04:56:43;;;;;;;6.00;1.80;;;;;;;15.94;75.26;101181.38;7364176;19;20018;-60
2023/06/14 04:59:14;;;;;;;8.55;1.60;;;;;;;15.94;75.54;101189.34;7363987;19;20013;-62
2023/06/14 05:01:48;;;;;;;7.90;2.03;;;;;;;15.91;75.84;101185.19;7362722;19;20035;-62
2023/06/14 05:04:21;;;;;;;7.60;1.58;;;;;;;15.96;75.83;101192.63;7357798;19;20030;-61
2023/06/14 05:06:48;;;;;;;10.57;1.80;;;;;;;15.90;76.18;101188.84;7361525;19;20221;-63
2023/06/14 05:09:16;;;;;;;9.18;2.25;;;;;;;15.87;76.70;101188.38;7362595;19;20498;-62
2023/06/14 05:11:44;;;;;;;8.60;1.70;;;;;;;15.87;76.39;101188.38;7362816;19;21767;-62
2023/06/14 05:14:11;;;;;;;22.65;4.28;;;;;;;15.91;76.49;101192.31;7359974;19;20010;-62
2023/06/14 05:16:39;;;;;;;11.95;2.13;;;;;;;15.92;76.72;101191.31;7363652;19;20064;-62
2023/06/14 05:19:07;;;;;;;11.65;2.50;;;;;;;16.05;76.03;101188.91;7359295;19;20022;-62
2023/06/14 05:21:34;;;;;;;7.65;2.25;;;;;;;16.10;76.29;101184.69;7359369;19;20497;-61
2023/06/14 05:24:09;;;;;;;6.70;1.95;;;;;;;16.18;76.04;101181.13;7360899;19;20021;-62
2023/06/14 05:26:36;;;;;;;7.13;1.63;;;;;;;16.29;75.58;101185.19;7363041;19;20011;-62
2023/06/14 05:29:03;;;;;;;7.40;1.77;;;;;;;16.35;75.77;101187.97;7360082;19;20606;-62
2023/06/14 05:31:30;;;;;;;8.40;1.85;;;;;;;16.44;75.33;101180.72;7361625;19;20034;-62
2023/06/14 05:33:58;;;;;;;6.13;1.45;;;;;;;16.49;75.66;101187.13;7358994;19;20006;-64
2023/06/14 05:36:27;;;;;;;8.98;1.80;;;;;;;16.49;75.59;101186.31;7364137;19;20017;-62
2023/06/14 05:38:57;;;;;;;9.50;1.70;;;;;;;16.49;75.78;101184.47;7358622;19;20106;-61
2023/06/14 05:41:28;;;;;;;11.20;1.88;;;;;;;16.41;76.30;101184.56;7359276;19;20094;-62
2023/06/14 05:43:56;;;;;;;8.82;1.95;;;;;;;16.44;76.18;101186.88;7357509;19;20131;-61
2023/06/14 05:46:26;;;;;;;9.98;1.85;;;;;;;16.46;76.22;101194.63;7363450;19;20022;-62
2023/06/14 05:48:55;;;;;;;12.20;2.28;;;;;;;16.51;76.25;101194.91;7355934;19;20014;-62
2023/06/14 05:51:24;;;;;;;10.35;2.08;;;;;;;16.55;76.07;101202.34;7363315;19;20006;-61
2023/06/14 05:53:52;;;;;;;10.18;2.05;;;;;;;16.55;76.61;101190.91;7361646;19;20011;-63
2023/06/14 05:56:19;;;;;;;10.38;2.50;;;;;;;16.55;76.44;101190.91;7357884;19;20511;-62
2023/06/14 05:58:47;;;;;;;8.15;1.75;;;;;;;16.66;75.86;101190.44;7362381;19;20042;-62
2023/06/14 06:01:15;;;;;;;12.38;2.58;;;;;;;16.87;75.19;101187.88;7360956;19;20022;-62
2023/06/14 06:03:45;;;;;;;10.73;2.40;;;;;;;16.99;74.90;101188.25;7361037;19;20011;-62
2023/06/14 06:06:13;;;;;;;9.10;2.10;;;;;;;17.15;74.07;101193.34;7360033;19;20018;-63
2023/06/14 06:08:40;;;;;;;12.10;2.08;;;;;;;17.15;74.14;101196.00;7360994;19;20030;-63
2023/06/14 06:11:07;;;;;;;8.45;2.05;;;;;;;17.18;74.20;101200.94;7360719;19;20022;-62
2023/06/14 06:13:35;;;;;;;6.60;2.22;;;;;;;17.34;73.45;101197.25;7362008;19;20910;-64
2023/06/14 06:16:03;;;;;;;10.52;2.28;;;;;;;17.41;73.12;101201.63;7360737;19;20041;-61
2023/06/14 06:18:30;;;;;;;8.32;2.13;;;;;;;17.37;73.63;101196.88;7358078;19;20503;-61
2023/06/14 06:20:57;;;;;;;6.93;2.00;;;;;;;17.36;73.77;101192.56;7355867;19;20018;-61
2023/06/14 06:23:25;;;;;;;8.45;2.45;;;;;;;17.38;73.66;101198.50;7358275;19;20138;-61
2023/06/14 06:25:52;;;;;;;14.57;3.13;;;;;;;17.49;75.06;101206.00;7359228;19;20006;-64
2023/06/14 06:28:18;;;;;;;24.33;4.20;;;;;;;17.57;73.30;101202.41;7361330;19;20042;-63
2023/06/14 06:30:46;;;;;;;12.98;2.88;;;;;;;17.68;72.56;101208.06;7359020;19;20014;-64
2023/06/14 06:33:13;;;;;;;14.82;2.88;;;;;;;17.86;72.31;101205.81;7356312;19;20022;-61
2023/06/14 06:35:41;;;;;;;7.30;2.33;;;;;;;18.03;71.31;101208.22;7360825;19;20010;-62
2023/06/14 06:38:09;;;;;;;6.60;2.50;;;;;;;18.02;71.46;101207.38;7362359;19;20377;-63
2023/06/14 06:40:37;;;;;;;9.73;2.30;;;;;;;18.14;70.83;101205.81;7357443;19;20432;-64
2023/06/14 06:43:04;;;;;;;9.63;2.75;;;;;;;18.28;70.60;101209.44;7360052;19;20021;-62
2023/06/14 06:45:35;;;;;;;17.52;2.20;;;;;;;18.27;70.73;101208.63;7358806;19;20022;-63
2023/06/14 06:48:02;;;;;;;11.23;2.55;;;;;;;18.31;71.06;101215.19;7358371;19;20125;-63
2023/06/14 06:50:30;;;;;;;11.40;2.50;;;;;;;18.34;70.83;101212.13;7365394;19;20041;-63
2023/06/14 06:52:57;;;;;;;14.02;3.67;;;;;;;18.39;70.51;101206.22;7370528;19;20090;-61
2023/06/14 06:55:24;;;;;;;7.82;2.67;;;;;;;18.36;70.56;101204.78;7374947;19;20102;-62
2023/06/14 06:57:52;;;;;;;11.98;2.65;;;;;;;18.44;71.25;101211.78;7371493;19;20022;-62
2023/06/14 07:00:20;;;;;;;9.15;2.50;;;;;;;18.49;70.80;101217.34;7367423;19;20089;-61
2023/06/14 07:02:48;;;;;;;7.90;3.05;;;;;;;18.55;70.55;101215.78;7364821;19;20026;-62
2023/06/14 07:05:16;;;;;;;12.90;3.00;;;;;;;18.54;70.76;101212.28;7361185;19;20019;-63
2023/06/14 07:07:45;;;;;;;11.57;3.00;;;;;;;18.52;71.02;101224.97;7367546;19;20021;-63
2023/06/14 07:10:12;;;;;;;13.05;2.85;;;;;;;18.50;71.09;101213.69;7367781;19;20951;-62
2023/06/14 07:12:39;;;;;;;14.75;3.58;;;;;;;18.53;71.30;101225.81;7366563;19;20026;-62
2023/06/14 07:15:08;;;;;;;13.88;3.50;;;;;;;18.51;71.04;101227.84;7366255;19;20010;-62
2023/06/14 07:17:35;;;;;;;7.45;2.55;;;;;;;18.57;71.51;101230.59;7360566;19;20044;-63
2023/06/14 07:20:11;;;;;;;7.60;2.40;;;;;;;18.64;70.67;101235.97;7365916;19;20091;-63
2023/06/14 07:22:40;;;;;;;6.28;2.63;;;;;;;18.63;70.73;101232.47;7365362;19;20024;-62
2023/06/14 07:25:15;;;;;;;9.48;2.60;;;;;;;18.68;70.82;101234.56;7365961;19;20010;-62
2023/06/14 07:27:45;;;;;;;9.65;3.30;;;;;;;18.71;70.61;101226.97;7365378;19;20007;-62
2023/06/14 07:30:13;;;;;;;8.57;2.75;;;;;;;18.80;70.79;101232.97;7360633;19;20029;-61
2023/06/14 07:32:40;;;;;;;10.55;2.63;;;;;;;18.92;70.71;101228.72;7363168;19;20013;-61
2023/06/14 07:35:07;;;;;;;12.13;3.03;;;;;;;19.18;69.48;101241.38;7367339;19;20011;-63
2023/06/14 07:37:34;;;;;;;13.80;2.90;;;;;;;19.56;67.80;101229.22;7368303;19;20025;-64
2023/06/14 07:40:06;;;;;;;9.45;2.17;;;;;;;19.99;67.22;101221.69;7366944;19;20730;-63
2023/06/14 07:42:35;;;;;;;9.82;2.28;;;;;;;21.09;64.18;101233.47;7367047;19;20018;-62
2023/06/14 07:45:06;;;;;;;9.68;2.30;;;;;;;22.82;58.57;101231.03;7367513;19;20081;-62
2023/06/14 07:47:33;;;;;;;7.95;2.67;;;;;;;23.96;53.74;101238.25;7367001;19;20014;-63
2023/06/14 07:50:00;;;;;;;10.05;2.65;;;;;;;23.96;53.62;101246.31;7365581;19;20023;-65
2023/06/14 07:52:30;;;;;;;6.95;2.13;;;;;;;23.94;52.83;101255.63;7365346;19;20049;-62
2023/06/14 07:54:59;;;;;;;13.13;3.10;;;;;;;23.79;53.23;101246.13;7368387;19;20026;-62
2023/06/14 07:57:26;;;;;;;12.73;3.30;;;;;;;23.46;53.49;101250.34;7368682;19;20006;-62
2023/06/14 07:59:53;;;;;;;10.00;2.70;;;;;;;23.13;55.12;101251.53;7364288;19;20563;-62
2023/06/14 08:02:20;;;;;;;9.40;2.40;;;;;;;22.78;56.42;101253.19;7359838;19;21261;-62
2023/06/14 08:04:48;;;;;;;9.98;2.58;;;;;;;22.66;57.52;101258.41;7364864;19;20015;-62
2023/06/14 08:07:15;;;;;;;13.52;2.63;;;;;;;22.56;57.91;101252.75;7366174;19;20035;-61
2023/06/14 08:09:42;;;;;;;16.45;2.90;;;;;;;22.41;57.89;101249.59;7366749;19;20400;-62
2023/06/14 08:12:09;;;;;;;10.57;2.20;;;;;;;22.20;59.57;101245.44;7367626;19;20578;-63
2023/06/14 08:14:39;;;;;;;13.18;2.85;;;;;;;21.84;59.81;101247.97;7366704;19;20015;-63
2023/06/14 08:17:06;;;;;;;20.55;4.00;;;;;;;21.88;59.97;101251.84;7365106;19;20078;-62
2023/06/14 08:19:33;;;;;;;8.48;3.20;;;;;;;22.23;58.90;101253.06;7364157;19;20089;-63
2023/06/14 08:22:01;;;;;;;11.25;2.45;;;;;;;22.34;57.88;101254.22;7365198;19;20015;-61
2023/06/14 08:24:28;;;;;;;9.88;2.35;;;;;;;22.21;58.44;101254.28;7361002;19;20018;-62
2023/06/14 08:26:56;;;;;;;17.80;3.35;;;;;;;22.11;58.89;101252.09;7365109;19;20010;-63
2023/06/14 08:29:23;;;;;;;15.55;2.88;;;;;;;22.63;57.62;101252.69;7365039;19;20021;-62
2023/06/14 08:31:50;;;;;;;8.93;3.20;;;;;;;23.29;55.55;101264.38;7361160;19;20687;-61
2023/06/14 08:34:17;;;;;;;10.73;3.22;;;;;;;24.00;53.39;101262.78;7365831;19;20022;-61
2023/06/14 08:36:44;;;;;;;10.95;2.65;;;;;;;24.41;51.58;101257.38;7365784;19;20018;-62
2023/06/14 08:39:11;;;;;;;10.40;2.17;;;;;;;24.15;53.60;101265.84;7364090;19;20628;-62
2023/06/14 08:41:38;;;;;;;11.43;2.97;;;;;;;23.63;54.84;101260.22;7360912;19;20022;-63
2023/06/14 08:44:07;;;;;;;5.53;2.70;;;;;;;23.44;55.05;101259.41;7365558;19;20684;-62
2023/06/14 08:46:37;;;;;;;10.38;2.60;;;;;;;23.39;55.29;101258.44;7362747;19;21556;-62
2023/06/14 08:49:07;;;;;;;11.43;2.28;;;;;;;23.04;56.25;101258.28;7357275;19;20410;-63
2023/06/14 08:51:36;;;;;;;9.73;3.10;;;;;;;23.23;56.27;101253.69;7362337;19;20593;-62
2023/06/14 08:54:04;;;;;;;9.65;3.38;;;;;;;23.19;55.60;101258.72;7362789;19;20018;-62
2023/06/14 08:56:33;;;;;;;12.07;2.65;;;;;;;23.08;56.29;101253.25;7361993;19;20081;-62
2023/06/14 08:59:04;;;;;;;8.50;2.80;;;;;;;22.91;56.82;101253.84;7363881;19;21977;-62
2023/06/14 09:01:34;;;;;;;12.77;2.58;;;;;;;22.91;57.24;101255.72;7362903;19;20018;-62
2023/06/14 09:04:02;;;;;;;14.88;3.03;;;;;;;22.77;58.12;101251.53;7361715;19;20078;-61
2023/06/14 09:06:30;;;;;;;8.05;2.50;;;;;;;22.92;57.67;101254.69;7364978;19;20014;-63
2023/06/14 09:08:57;;;;;;;9.80;2.25;;;;;;;23.19;57.97;101261.41;7362237;19;20708;-62
2023/06/14 09:11:26;;;;;;;12.68;3.10;;;;;;;23.62;56.46;101263.16;7359427;19;20138;-62
2023/06/14 09:13:53;;;;;;;19.75;3.05;;;;;;;23.60;55.01;101268.75;7361247;19;20021;-62
2023/06/14 09:16:20;;;;;;;11.43;2.63;;;;;;;23.51;54.91;101267.44;7363296;19;20018;-63
2023/06/14 09:18:48;;;;;;;10.10;2.78;;;;;;;23.28;55.87;101260.03;7360680;19;20022;-62
2023/06/14 09:21:17;;;;;;;13.30;3.38;;;;;;;23.23;55.81;101269.81;7366006;19;20010;-62
2023/06/14 09:23:45;;;;;;;11.00;2.85;;;;;;;23.11;56.61;101263.56;7364476;19;20034;-62
2023/06/14 09:26:19;;;;;;;14.52;3.15;;;;;;;23.05;56.57;101273.34;7364879;19;20581;-61
2023/06/14 09:28:48;;;;;;;7.00;2.40;;;;;;;22.98;57.06;101264.53;7361943;19;21069;-61
2023/06/14 09:31:19;;;;;;;9.50;3.17;;;;;;;23.01;57.20;101267.56;7363136;19;21813;-63
2023/06/14 09:33:49;;;;;;;12.00;2.83;;;;;;;23.02;57.03;101271.09;7361317;19;20022;-63
2023/06/14 09:36:18;;;;;;;13.63;3.35;;;;;;;22.98;56.80;101270.72;7361781;19;20050;-62
2023/06/14 09:38:54;;;;;;;7.85;1.95;;;;;;;23.07;56.70;101270.41;7361525;19;20036;-67
2023/06/14 09:41:38;;;;;;;10.40;2.40;;;;;;;23.13;57.29;101269.53;7364031;19;20021;-63
2023/06/14 09:44:07;;;;;;;12.90;2.70;;;;;;;23.23;56.92;101270.63;7358307;19;20011;-63
2023/06/14 09:46:38;;;;;;;6.72;2.63;;;;;;;23.37;55.57;101277.47;7364814;19;20027;-62
2023/06/14 09:49:06;;;;;;;9.27;2.40;;;;;;;23.56;54.51;101272.94;7359755;19;20018;-62
2023/06/14 09:51:40;;;;;;;11.40;2.60;;;;;;;23.67;54.30;101268.66;7362474;19;20041;-62
2023/06/14 09:54:13;;;;;;;6.55;2.60;;;;;;;23.73;54.48;101279.31;7363963;19;20010;-62
2023/06/14 09:56:48;;;;;;;12.77;3.08;;;;;;;23.85;54.20;101263.22;7359873;19;20041;-62
2023/06/14 09:59:29;;;;;;;6.95;2.53;;;;;;;23.96;54.29;101270.50;7361806;19;20567;-62
2023/06/14 10:01:59;;;;;;;8.95;2.20;;;;;;;24.04;52.83;101277.41;7362991;19;20125;-63
2023/06/14 10:04:28;;;;;;;7.22;2.90;;;;;;;24.13;53.02;101268.78;7360325;19;20010;-62
2023/06/14 10:06:56;;;;;;;8.95;2.25;;;;;;;24.29;52.29;101276.19;7363956;19;20246;-62
2023/06/14 10:09:24;;;;;;;5.20;2.30;;;;;;;24.44;52.32;101269.53;7364448;19;20896;-63
2023/06/14 10:11:51;;;;;;;11.95;2.88;;;;;;;24.49;52.70;101269.66;7356866;19;20017;-62
2023/06/14 10:14:19;;;;;;;10.43;2.55;;;;;;;24.57;52.58;101269.31;7361000;19;20097;-62
2023/06/14 10:16:56;;;;;;;10.85;2.80;;;;;;;24.67;52.03;101273.06;7362786;19;20493;-61
2023/06/14 10:19:35;;;;;;;10.90;2.85;;;;;;;24.84;51.15;101269.69;7360253;19;20018;-64
2023/06/14 10:22:08;;;;;;;9.57;2.80;;;;;;;24.86;51.10;101271.06;7362466;19;21801;-62
2023/06/14 10:24:45;;;;;;;11.38;2.50;;;;;;;25.03;49.53;101271.19;7364249;19;20861;-62
2023/06/14 10:27:18;;;;;;;12.68;3.85;;;;;;;25.08;50.53;101271.31;7367763;19;20014;-62
2023/06/14 10:29:54;;;;;;;8.45;2.47;;;;;;;25.09;50.69;101264.84;7366562;19;20306;-63
2023/06/14 10:32:23;;;;;;;9.02;1.98;;;;;;;25.08;50.67;101264.03;7365199;19;22159;-62
2023/06/14 10:35:01;;;;;;;8.02;2.67;;;;;;;25.14;49.69;101259.56;7363723;19;20018;-62
2023/06/14 10:37:28;;;;;;;8.95;2.83;;;;;;;25.11;49.42;101257.34;7366636;19;20018;-62
2023/06/14 10:39:56;;;;;;;6.93;3.20;;;;;;;25.20;48.46;101263.16;7367205;19;20014;-62
2023/06/14 10:42:31;;;;;;;7.65;2.40;;;;;;;25.24;47.64;101254.41;7365635;19;20094;-62
2023/06/14 10:45:01;;;;;;;7.22;2.72;;;;;;;25.30;48.16;101266.06;7368174;19;20880;-62
2023/06/14 10:47:34;;;;;;;8.13;2.63;;;;;;;25.31;47.20;101260.44;7367870;19;20015;-62
2023/06/14 10:50:02;;;;;;;6.72;3.10;;;;;;;25.26;46.08;101259.53;7367519;19;20014;-62
2023/06/14 10:52:32;;;;;;;10.80;2.65;;;;;;;25.31;47.46;101262.31;7367022;19;20014;-62
2023/06/14 10:55:10;;;;;;;9.40;3.30;;;;;;;25.33;47.69;101268.31;7367381;19;21993;-63
2023/06/14 10:57:41;;;;;;;7.57;2.50;;;;;;;25.35;48.01;101255.38;7367470;19;20612;-62
2023/06/14 11:00:28;;;;;;;9.57;2.58;;;;;;;25.37;48.19;101259.50;7364119;19;20010;-62
2023/06/14 11:03:10;;;;;;;8.65;2.55;;;;;;;25.48;48.72;101257.81;7361684;19;20018;-63
2023/06/14 11:05:47;;;;;;;9.10;2.83;;;;;;;25.65;46.42;101257.91;7362099;19;20021;-62
2023/06/14 11:08:32;;;;;;;9.40;3.33;;;;;;;25.69;45.96;101262.56;7367431;19;20523;-63
2023/06/14 11:11:00;;;;;;;9.25;2.80;;;;;;;25.72;46.60;101253.16;7369269;19;20444;-62
2023/06/14 11:13:28;;;;;;;6.68;2.72;;;;;;;25.78;46.10;101252.19;7366251;19;20113;-62
2023/06/14 11:15:58;;;;;;;7.75;3.03;;;;;;;25.82;45.96;101256.03;7366249;19;20070;-61
2023/06/14 11:18:28;;;;;;;5.72;2.85;;;;;;;25.86;44.03;101258.00;7365631;19;20010;-61
2023/06/14 11:20:55;;;;;;;13.13;4.40;;;;;;;25.85;44.06;101248.25;7364222;19;21065;-62
2023/06/14 11:23:23;;;;;;;8.82;2.90;;;;;;;25.86;44.63;101252.59;7365778;19;20010;-62
2023/06/14 11:25:51;;;;;;;6.80;2.75;;;;;;;25.86;44.85;101241.00;7366906;19;20042;-62
2023/06/14 11:28:21;;;;;;;9.60;3.10;;;;;;;25.86;44.14;101241.81;7367104;19;20015;-64
2023/06/14 11:30:49;;;;;;;16.13;4.68;;;;;;;25.90;44.53;101240.28;7367335;19;20362;-62